Decoded Metar for KLDJ ( in _UNIDENTIFIED) (IATA:N/A) | Meteo·Mobile Aviation Weather
aviador You're here:

KLDJ Decoded Metar

in _UNIDENTIFIED
Report Time2019-05-23 10:35:00
UTC Time2019-05-23 10:43:05
Flight Rules mvfr MVFR
WindCalm
Visibility8047 m
Phenomena:Rain
Clouds:Scattered 050 Hf
Broken 075 Hf
Overcast 100 Hf
Expected CloudBase > 1,600 ft AGL from Temp-Dew spread
Ceiling7,500 ft
Temp15°C (ISA 0)
Dew Point11°C (77% RH)
QNH1024 hPa
Density Alt-167 ft
Elevation23 ft
Report Wrong Elevation
Raw Report
KLDJ 231035Z AUTO 00000KT 5SM RA SCT050 BKN075 OVC100 15/11 A3024
RMK AO2 LTG DSNT W AND NW P0003 T01500109=

Extra information for KLDJ:More info

Metar Taf Metar & Taf Last 4 Metars F.Rules Stats Wind Profile Meteogram Temp Stats Metar ALERT Operation Metar Decoded Social comments